sensor_id;sensor_type;location;lat;lon;timestamp;P1;durP1;ratioP1;P2;durP2;ratioP2
55827;SDS011;41758;51.992;5.890;2023-12-22T00:00:43;13.90;;;2.92;;
55827;SDS011;41758;51.992;5.890;2023-12-22T00:03:12;14.27;;;3.17;;
55827;SDS011;41758;51.992;5.890;2023-12-22T00:05:39;15.98;;;3.15;;
55827;SDS011;41758;51.992;5.890;2023-12-22T00:08:05;9.70;;;2.60;;
55827;SDS011;41758;51.992;5.890;2023-12-22T00:10:31;13.52;;;3.33;;
55827;SDS011;41758;51.992;5.890;2023-12-22T00:12:56;13.60;;;2.90;;
55827;SDS011;41758;51.992;5.890;2023-12-22T00:15:22;14.30;;;3.10;;
55827;SDS011;41758;51.992;5.890;2023-12-22T00:17:47;18.67;;;3.40;;
55827;SDS011;41758;51.992;5.890;2023-12-22T00:20:13;19.15;;;3.65;;
55827;SDS011;41758;51.992;5.890;2023-12-22T00:22:39;15.43;;;3.60;;
55827;SDS011;41758;51.992;5.890;2023-12-22T00:25:05;18.15;;;3.35;;
55827;SDS011;41758;51.992;5.890;2023-12-22T00:27:33;15.27;;;3.50;;
55827;SDS011;41758;51.992;5.890;2023-12-22T00:29:58;15.18;;;3.42;;
55827;SDS011;41758;51.992;5.890;2023-12-22T00:32:24;10.60;;;2.88;;
55827;SDS011;41758;51.992;5.890;2023-12-22T00:34:50;11.63;;;3.13;;
55827;SDS011;41758;51.992;5.890;2023-12-22T00:37:16;13.32;;;2.72;;
55827;SDS011;41758;51.992;5.890;2023-12-22T00:39:41;11.55;;;3.00;;
55827;SDS011;41758;51.992;5.890;2023-12-22T00:42:07;9.65;;;2.30;;
55827;SDS011;41758;51.992;5.890;2023-12-22T00:44:33;10.05;;;2.13;;
55827;SDS011;41758;51.992;5.890;2023-12-22T00:46:58;9.98;;;2.15;;
55827;SDS011;41758;51.992;5.890;2023-12-22T00:49:24;9.40;;;2.30;;
55827;SDS011;41758;51.992;5.890;2023-12-22T00:51:50;10.38;;;2.25;;
55827;SDS011;41758;51.992;5.890;2023-12-22T00:54:15;7.25;;;2.17;;
55827;SDS011;41758;51.992;5.890;2023-12-22T00:56:41;7.00;;;2.00;;
55827;SDS011;41758;51.992;5.890;2023-12-22T00:59:06;8.20;;;1.92;;
55827;SDS011;41758;51.992;5.890;2023-12-22T01:01:32;9.93;;;2.05;;
55827;SDS011;41758;51.992;5.890;2023-12-22T01:03:58;9.73;;;2.33;;
55827;SDS011;41758;51.992;5.890;2023-12-22T01:06:23;9.45;;;2.20;;
55827;SDS011;41758;51.992;5.890;2023-12-22T01:08:49;7.35;;;2.10;;
55827;SDS011;41758;51.992;5.890;2023-12-22T01:11:18;8.32;;;2.58;;
55827;SDS011;41758;51.992;5.890;2023-12-22T01:13:44;13.20;;;2.92;;
55827;SDS011;41758;51.992;5.890;2023-12-22T01:16:10;9.13;;;2.30;;
55827;SDS011;41758;51.992;5.890;2023-12-22T01:18:35;8.45;;;2.10;;
55827;SDS011;41758;51.992;5.890;2023-12-22T01:21:01;10.80;;;2.47;;
55827;SDS011;41758;51.992;5.890;2023-12-22T01:23:27;10.25;;;2.30;;
55827;SDS011;41758;51.992;5.890;2023-12-22T01:25:52;8.25;;;2.22;;
55827;SDS011;41758;51.992;5.890;2023-12-22T01:28:18;10.43;;;2.20;;
55827;SDS011;41758;51.992;5.890;2023-12-22T01:30:44;8.50;;;1.88;;
55827;SDS011;41758;51.992;5.890;2023-12-22T01:33:09;8.07;;;2.60;;
55827;SDS011;41758;51.992;5.890;2023-12-22T01:35:35;10.00;;;2.50;;
55827;SDS011;41758;51.992;5.890;2023-12-22T01:38:01;7.88;;;2.10;;
55827;SDS011;41758;51.992;5.890;2023-12-22T01:40:27;8.40;;;2.15;;
55827;SDS011;41758;51.992;5.890;2023-12-22T01:42:52;10.80;;;2.40;;
55827;SDS011;41758;51.992;5.890;2023-12-22T01:45:18;9.07;;;2.08;;
55827;SDS011;41758;51.992;5.890;2023-12-22T01:47:44;10.45;;;2.38;;
55827;SDS011;41758;51.992;5.890;2023-12-22T01:50:11;10.70;;;2.05;;
55827;SDS011;41758;51.992;5.890;2023-12-22T01:52:38;7.05;;;2.10;;
55827;SDS011;41758;51.992;5.890;2023-12-22T01:55:07;8.63;;;2.33;;
55827;SDS011;41758;51.992;5.890;2023-12-22T01:57:36;9.65;;;2.42;;
55827;SDS011;41758;51.992;5.890;2023-12-22T02:00:03;8.07;;;2.15;;
55827;SDS011;41758;51.992;5.890;2023-12-22T02:02:37;7.47;;;2.03;;
55827;SDS011;41758;51.992;5.890;2023-12-22T02:05:04;10.85;;;2.65;;
55827;SDS011;41758;51.992;5.890;2023-12-22T02:07:31;12.90;;;2.58;;
55827;SDS011;41758;51.992;5.890;2023-12-22T02:09:57;10.55;;;2.80;;
55827;SDS011;41758;51.992;5.890;2023-12-22T02:12:23;15.30;;;2.97;;
55827;SDS011;41758;51.992;5.890;2023-12-22T02:14:48;8.80;;;2.10;;
55827;SDS011;41758;51.992;5.890;2023-12-22T02:17:15;11.38;;;2.60;;
55827;SDS011;41758;51.992;5.890;2023-12-22T02:19:49;8.50;;;2.20;;
55827;SDS011;41758;51.992;5.890;2023-12-22T02:22:16;8.88;;;2.50;;
55827;SDS011;41758;51.992;5.890;2023-12-22T02:24:42;8.82;;;2.40;;
55827;SDS011;41758;51.992;5.890;2023-12-22T02:27:10;9.73;;;2.60;;
55827;SDS011;41758;51.992;5.890;2023-12-22T02:30:11;7.57;;;2.00;;
55827;SDS011;41758;51.992;5.890;2023-12-22T02:32:40;10.23;;;2.25;;
55827;SDS011;41758;51.992;5.890;2023-12-22T02:35:13;12.70;;;2.75;;
55827;SDS011;41758;51.992;5.890;2023-12-22T02:37:41;10.20;;;2.78;;
55827;SDS011;41758;51.992;5.890;2023-12-22T02:40:08;14.35;;;2.80;;
55827;SDS011;41758;51.992;5.890;2023-12-22T02:42:35;12.73;;;2.70;;
55827;SDS011;41758;51.992;5.890;2023-12-22T02:45:03;12.52;;;3.00;;
55827;SDS011;41758;51.992;5.890;2023-12-22T02:47:29;9.77;;;2.70;;
55827;SDS011;41758;51.992;5.890;2023-12-22T02:49:57;13.75;;;3.10;;
55827;SDS011;41758;51.992;5.890;2023-12-22T02:52:23;13.85;;;2.78;;
55827;SDS011;41758;51.992;5.890;2023-12-22T02:54:48;11.57;;;2.40;;
55827;SDS011;41758;51.992;5.890;2023-12-22T02:57:14;10.07;;;2.35;;
55827;SDS011;41758;51.992;5.890;2023-12-22T02:59:40;13.73;;;3.25;;
55827;SDS011;41758;51.992;5.890;2023-12-22T03:02:05;17.48;;;3.72;;
55827;SDS011;41758;51.992;5.890;2023-12-22T03:04:31;16.02;;;3.40;;
55827;SDS011;41758;51.992;5.890;2023-12-22T03:06:57;16.67;;;3.38;;
55827;SDS011;41758;51.992;5.890;2023-12-22T03:09:23;12.52;;;3.13;;
55827;SDS011;41758;51.992;5.890;2023-12-22T03:11:48;19.63;;;4.00;;
55827;SDS011;41758;51.992;5.890;2023-12-22T03:14:15;23.73;;;4.38;;
55827;SDS011;41758;51.992;5.890;2023-12-22T03:16:40;18.17;;;3.78;;
55827;SDS011;41758;51.992;5.890;2023-12-22T03:19:09;19.05;;;3.83;;
55827;SDS011;41758;51.992;5.890;2023-12-22T03:21:34;22.75;;;4.15;;
55827;SDS011;41758;51.992;5.890;2023-12-22T03:24:00;9.98;;;2.60;;
55827;SDS011;41758;51.992;5.890;2023-12-22T03:26:26;9.30;;;2.63;;
55827;SDS011;41758;51.992;5.890;2023-12-22T03:28:53;9.30;;;2.25;;
55827;SDS011;41758;51.992;5.890;2023-12-22T03:31:18;13.32;;;2.60;;
55827;SDS011;41758;51.992;5.890;2023-12-22T03:33:44;11.48;;;2.38;;
55827;SDS011;41758;51.992;5.890;2023-12-22T03:36:09;6.43;;;2.00;;
55827;SDS011;41758;51.992;5.890;2023-12-22T03:38:35;7.65;;;2.25;;
55827;SDS011;41758;51.992;5.890;2023-12-22T03:41:01;7.28;;;2.20;;
55827;SDS011;41758;51.992;5.890;2023-12-22T03:43:26;11.68;;;2.72;;
55827;SDS011;41758;51.992;5.890;2023-12-22T03:45:53;9.00;;;2.33;;
55827;SDS011;41758;51.992;5.890;2023-12-22T03:48:19;11.73;;;2.40;;
55827;SDS011;41758;51.992;5.890;2023-12-22T03:50:44;8.93;;;2.25;;
55827;SDS011;41758;51.992;5.890;2023-12-22T03:53:10;11.48;;;2.55;;
55827;SDS011;41758;51.992;5.890;2023-12-22T03:55:36;8.00;;;2.20;;
55827;SDS011;41758;51.992;5.890;2023-12-22T03:58:01;11.40;;;2.40;;
55827;SDS011;41758;51.992;5.890;2023-12-22T04:00:29;8.48;;;2.30;;
55827;SDS011;41758;51.992;5.890;2023-12-22T04:02:55;7.78;;;2.15;;
55827;SDS011;41758;51.992;5.890;2023-12-22T04:05:21;7.18;;;2.20;;
55827;SDS011;41758;51.992;5.890;2023-12-22T04:07:47;7.55;;;2.00;;
55827;SDS011;41758;51.992;5.890;2023-12-22T04:10:12;11.18;;;2.40;;
55827;SDS011;41758;51.992;5.890;2023-12-22T04:12:41;12.73;;;2.60;;
55827;SDS011;41758;51.992;5.890;2023-12-22T04:15:06;9.13;;;2.45;;
55827;SDS011;41758;51.992;5.890;2023-12-22T04:17:32;10.85;;;2.90;;
55827;SDS011;41758;51.992;5.890;2023-12-22T04:19:58;10.73;;;2.65;;
55827;SDS011;41758;51.992;5.890;2023-12-22T04:22:24;9.13;;;2.63;;
55827;SDS011;41758;51.992;5.890;2023-12-22T04:24:49;7.43;;;2.05;;
55827;SDS011;41758;51.992;5.890;2023-12-22T04:27:15;11.38;;;2.55;;
55827;SDS011;41758;51.992;5.890;2023-12-22T04:29:40;11.30;;;2.47;;
55827;SDS011;41758;51.992;5.890;2023-12-22T04:32:06;9.20;;;2.20;;
55827;SDS011;41758;51.992;5.890;2023-12-22T04:34:32;12.70;;;2.80;;
55827;SDS011;41758;51.992;5.890;2023-12-22T04:36:57;8.10;;;2.50;;
55827;SDS011;41758;51.992;5.890;2023-12-22T04:39:23;12.98;;;2.85;;
55827;SDS011;41758;51.992;5.890;2023-12-22T04:41:49;14.55;;;3.10;;
55827;SDS011;41758;51.992;5.890;2023-12-22T04:44:14;12.55;;;2.83;;
55827;SDS011;41758;51.992;5.890;2023-12-22T04:46:40;19.45;;;3.17;;
55827;SDS011;41758;51.992;5.890;2023-12-22T04:49:06;14.32;;;2.80;;
55827;SDS011;41758;51.992;5.890;2023-12-22T04:51:31;14.75;;;2.95;;
55827;SDS011;41758;51.992;5.890;2023-12-22T04:53:57;12.35;;;2.83;;
55827;SDS011;41758;51.992;5.890;2023-12-22T04:56:23;13.15;;;2.78;;
55827;SDS011;41758;51.992;5.890;2023-12-22T04:58:49;12.57;;;2.90;;
55827;SDS011;41758;51.992;5.890;2023-12-22T05:01:15;16.52;;;3.00;;
55827;SDS011;41758;51.992;5.890;2023-12-22T05:03:41;12.40;;;2.97;;
55827;SDS011;41758;51.992;5.890;2023-12-22T05:06:07;13.82;;;2.95;;
55827;SDS011;41758;51.992;5.890;2023-12-22T05:08:33;18.85;;;3.63;;
55827;SDS011;41758;51.992;5.890;2023-12-22T05:10:59;16.38;;;3.17;;
55827;SDS011;41758;51.992;5.890;2023-12-22T05:13:25;13.20;;;2.75;;
55827;SDS011;41758;51.992;5.890;2023-12-22T05:15:51;15.23;;;3.20;;
55827;SDS011;41758;51.992;5.890;2023-12-22T05:18:16;14.82;;;2.90;;
55827;SDS011;41758;51.992;5.890;2023-12-22T05:20:42;11.18;;;2.70;;
55827;SDS011;41758;51.992;5.890;2023-12-22T05:23:08;16.60;;;3.45;;
55827;SDS011;41758;51.992;5.890;2023-12-22T05:25:34;14.98;;;3.10;;
55827;SDS011;41758;51.992;5.890;2023-12-22T05:28:00;10.00;;;2.65;;
55827;SDS011;41758;51.992;5.890;2023-12-22T05:30:25;13.90;;;3.17;;
55827;SDS011;41758;51.992;5.890;2023-12-22T05:32:51;13.90;;;3.20;;
55827;SDS011;41758;51.992;5.890;2023-12-22T05:35:16;10.40;;;2.90;;
55827;SDS011;41758;51.992;5.890;2023-12-22T05:37:42;11.63;;;3.38;;
55827;SDS011;41758;51.992;5.890;2023-12-22T05:40:08;16.15;;;3.33;;
55827;SDS011;41758;51.992;5.890;2023-12-22T05:42:35;19.08;;;3.22;;
55827;SDS011;41758;51.992;5.890;2023-12-22T05:45:00;10.00;;;2.70;;
55827;SDS011;41758;51.992;5.890;2023-12-22T05:47:26;17.17;;;3.03;;
55827;SDS011;41758;51.992;5.890;2023-12-22T05:49:52;15.48;;;3.05;;
55827;SDS011;41758;51.992;5.890;2023-12-22T05:52:17;11.55;;;3.20;;
55827;SDS011;41758;51.992;5.890;2023-12-22T05:54:43;13.38;;;3.10;;
55827;SDS011;41758;51.992;5.890;2023-12-22T05:57:09;12.27;;;2.95;;
55827;SDS011;41758;51.992;5.890;2023-12-22T05:59:34;11.98;;;2.45;;
55827;SDS011;41758;51.992;5.890;2023-12-22T06:02:00;14.98;;;3.33;;
55827;SDS011;41758;51.992;5.890;2023-12-22T06:04:27;15.32;;;3.10;;
55827;SDS011;41758;51.992;5.890;2023-12-22T06:06:53;15.50;;;3.92;;
55827;SDS011;41758;51.992;5.890;2023-12-22T06:09:19;12.90;;;3.20;;
55827;SDS011;41758;51.992;5.890;2023-12-22T06:11:46;19.38;;;3.97;;
55827;SDS011;41758;51.992;5.890;2023-12-22T06:14:12;21.55;;;4.40;;
55827;SDS011;41758;51.992;5.890;2023-12-22T06:16:38;12.50;;;3.30;;
55827;SDS011;41758;51.992;5.890;2023-12-22T06:19:04;17.10;;;3.90;;
55827;SDS011;41758;51.992;5.890;2023-12-22T06:21:29;16.73;;;3.25;;
55827;SDS011;41758;51.992;5.890;2023-12-22T06:23:55;16.27;;;3.30;;
55827;SDS011;41758;51.992;5.890;2023-12-22T06:26:21;19.52;;;3.60;;
55827;SDS011;41758;51.992;5.890;2023-12-22T06:28:46;18.63;;;4.18;;
55827;SDS011;41758;51.992;5.890;2023-12-22T06:31:19;19.75;;;3.78;;
55827;SDS011;41758;51.992;5.890;2023-12-22T06:33:49;18.80;;;4.00;;
55827;SDS011;41758;51.992;5.890;2023-12-22T06:38:49;20.38;;;3.70;;
55827;SDS011;41758;51.992;5.890;2023-12-22T06:41:22;18.67;;;3.92;;
55827;SDS011;41758;51.992;5.890;2023-12-22T06:43:49;19.65;;;3.33;;
55827;SDS011;41758;51.992;5.890;2023-12-22T06:46:16;20.45;;;3.90;;
55827;SDS011;41758;51.992;5.890;2023-12-22T06:48:43;18.23;;;3.70;;
55827;SDS011;41758;51.992;5.890;2023-12-22T06:51:19;14.55;;;3.60;;
55827;SDS011;41758;51.992;5.890;2023-12-22T06:53:49;14.75;;;3.53;;
55827;SDS011;41758;51.992;5.890;2023-12-22T06:56:19;22.35;;;4.13;;
55827;SDS011;41758;51.992;5.890;2023-12-22T06:58:46;16.15;;;3.70;;
55827;SDS011;41758;51.992;5.890;2023-12-22T07:01:22;17.45;;;3.83;;
55827;SDS011;41758;51.992;5.890;2023-12-22T07:03:56;16.00;;;3.83;;
55827;SDS011;41758;51.992;5.890;2023-12-22T07:06:22;22.92;;;4.32;;
55827;SDS011;41758;51.992;5.890;2023-12-22T07:08:57;25.58;;;4.90;;
55827;SDS011;41758;51.992;5.890;2023-12-22T07:11:43;17.92;;;4.22;;
55827;SDS011;41758;51.992;5.890;2023-12-22T07:14:15;17.35;;;4.15;;
55827;SDS011;41758;51.992;5.890;2023-12-22T07:16:41;17.27;;;4.03;;
55827;SDS011;41758;51.992;5.890;2023-12-22T07:19:10;17.60;;;4.13;;
55827;SDS011;41758;51.992;5.890;2023-12-22T07:21:38;22.52;;;4.35;;
55827;SDS011;41758;51.992;5.890;2023-12-22T07:24:04;20.27;;;3.80;;
55827;SDS011;41758;51.992;5.890;2023-12-22T07:26:30;19.70;;;4.03;;
55827;SDS011;41758;51.992;5.890;2023-12-22T07:28:56;22.58;;;4.78;;
55827;SDS011;41758;51.992;5.890;2023-12-22T07:31:22;23.92;;;4.97;;
55827;SDS011;41758;51.992;5.890;2023-12-22T07:33:48;25.42;;;5.40;;
55827;SDS011;41758;51.992;5.890;2023-12-22T07:36:13;26.08;;;4.63;;
55827;SDS011;41758;51.992;5.890;2023-12-22T07:38:39;24.35;;;4.47;;
55827;SDS011;41758;51.992;5.890;2023-12-22T07:41:05;24.25;;;4.72;;
55827;SDS011;41758;51.992;5.890;2023-12-22T07:43:31;18.20;;;4.32;;
55827;SDS011;41758;51.992;5.890;2023-12-22T07:45:57;30.38;;;5.43;;
55827;SDS011;41758;51.992;5.890;2023-12-22T07:48:23;17.08;;;3.95;;
55827;SDS011;41758;51.992;5.890;2023-12-22T07:50:49;21.25;;;4.47;;
55827;SDS011;41758;51.992;5.890;2023-12-22T07:53:15;23.40;;;5.05;;
55827;SDS011;41758;51.992;5.890;2023-12-22T07:55:41;23.50;;;5.47;;
55827;SDS011;41758;51.992;5.890;2023-12-22T07:58:06;27.08;;;5.35;;
55827;SDS011;41758;51.992;5.890;2023-12-22T08:00:32;27.13;;;5.13;;
55827;SDS011;41758;51.992;5.890;2023-12-22T08:02:59;24.00;;;5.05;;
55827;SDS011;41758;51.992;5.890;2023-12-22T08:05:25;28.20;;;5.78;;
55827;SDS011;41758;51.992;5.890;2023-12-22T08:07:51;25.77;;;5.38;;
55827;SDS011;41758;51.992;5.890;2023-12-22T08:10:17;28.35;;;5.63;;
55827;SDS011;41758;51.992;5.890;2023-12-22T08:12:42;29.52;;;5.68;;
55827;SDS011;41758;51.992;5.890;2023-12-22T08:15:08;26.27;;;5.82;;
55827;SDS011;41758;51.992;5.890;2023-12-22T08:17:37;32.60;;;6.07;;
55827;SDS011;41758;51.992;5.890;2023-12-22T08:20:10;28.95;;;5.60;;
55827;SDS011;41758;51.992;5.890;2023-12-22T08:22:36;20.95;;;4.10;;
55827;SDS011;41758;51.992;5.890;2023-12-22T08:25:01;20.33;;;4.43;;
55827;SDS011;41758;51.992;5.890;2023-12-22T08:27:27;18.42;;;4.82;;
55827;SDS011;41758;51.992;5.890;2023-12-22T08:29:53;15.05;;;4.57;;
55827;SDS011;41758;51.992;5.890;2023-12-22T08:32:18;21.42;;;5.35;;
55827;SDS011;41758;51.992;5.890;2023-12-22T08:34:44;13.55;;;4.13;;
55827;SDS011;41758;51.992;5.890;2023-12-22T08:37:10;17.83;;;3.50;;
55827;SDS011;41758;51.992;5.890;2023-12-22T08:39:36;15.52;;;3.80;;
55827;SDS011;41758;51.992;5.890;2023-12-22T08:42:01;17.45;;;3.95;;
55827;SDS011;41758;51.992;5.890;2023-12-22T08:44:27;18.55;;;4.82;;
55827;SDS011;41758;51.992;5.890;2023-12-22T08:46:53;25.48;;;5.30;;
55827;SDS011;41758;51.992;5.890;2023-12-22T08:49:19;18.48;;;4.78;;
55827;SDS011;41758;51.992;5.890;2023-12-22T08:51:44;18.60;;;4.85;;
55827;SDS011;41758;51.992;5.890;2023-12-22T08:54:10;24.05;;;5.10;;
55827;SDS011;41758;51.992;5.890;2023-12-22T08:56:36;26.23;;;5.00;;
55827;SDS011;41758;51.992;5.890;2023-12-22T08:59:01;21.73;;;5.47;;
55827;SDS011;41758;51.992;5.890;2023-12-22T09:01:27;18.27;;;4.45;;
55827;SDS011;41758;51.992;5.890;2023-12-22T09:03:53;12.70;;;3.88;;
55827;SDS011;41758;51.992;5.890;2023-12-22T09:06:19;16.85;;;4.88;;
55827;SDS011;41758;51.992;5.890;2023-12-22T09:08:46;22.33;;;4.53;;
55827;SDS011;41758;51.992;5.890;2023-12-22T09:11:12;17.75;;;4.40;;
55827;SDS011;41758;51.992;5.890;2023-12-22T09:13:39;19.58;;;4.30;;
55827;SDS011;41758;51.992;5.890;2023-12-22T09:16:06;18.20;;;4.70;;
55827;SDS011;41758;51.992;5.890;2023-12-22T09:18:34;17.33;;;3.90;;
55827;SDS011;41758;51.992;5.890;2023-12-22T09:21:01;20.60;;;3.92;;
55827;SDS011;41758;51.992;5.890;2023-12-22T09:23:28;15.27;;;3.70;;
55827;SDS011;41758;51.992;5.890;2023-12-22T09:25:54;15.35;;;3.50;;
55827;SDS011;41758;51.992;5.890;2023-12-22T09:28:20;16.15;;;4.25;;
55827;SDS011;41758;51.992;5.890;2023-12-22T09:30:46;11.30;;;3.15;;
55827;SDS011;41758;51.992;5.890;2023-12-22T09:33:11;16.77;;;3.90;;
55827;SDS011;41758;51.992;5.890;2023-12-22T09:35:37;17.95;;;3.78;;
55827;SDS011;41758;51.992;5.890;2023-12-22T09:38:07;17.52;;;4.15;;
55827;SDS011;41758;51.992;5.890;2023-12-22T09:40:34;19.80;;;4.05;;
55827;SDS011;41758;51.992;5.890;2023-12-22T09:43:01;15.95;;;4.05;;
55827;SDS011;41758;51.992;5.890;2023-12-22T09:45:28;17.73;;;4.00;;
55827;SDS011;41758;51.992;5.890;2023-12-22T09:47:56;12.98;;;3.58;;
55827;SDS011;41758;51.992;5.890;2023-12-22T09:50:23;17.13;;;3.95;;
55827;SDS011;41758;51.992;5.890;2023-12-22T09:52:49;12.18;;;3.20;;
55827;SDS011;41758;51.992;5.890;2023-12-22T09:55:15;10.68;;;2.83;;
55827;SDS011;41758;51.992;5.890;2023-12-22T09:57:42;10.70;;;2.58;;
55827;SDS011;41758;51.992;5.890;2023-12-22T10:00:10;7.40;;;2.00;;
55827;SDS011;41758;51.992;5.890;2023-12-22T10:02:38;9.00;;;2.13;;
55827;SDS011;41758;51.992;5.890;2023-12-22T10:05:04;6.30;;;1.92;;
55827;SDS011;41758;51.992;5.890;2023-12-22T10:07:31;6.93;;;2.15;;
55827;SDS011;41758;51.992;5.890;2023-12-22T10:09:59;4.97;;;1.58;;
55827;SDS011;41758;51.992;5.890;2023-12-22T10:12:27;5.00;;;1.58;;
55827;SDS011;41758;51.992;5.890;2023-12-22T10:14:55;7.00;;;1.88;;
55827;SDS011;41758;51.992;5.890;2023-12-22T10:17:21;5.90;;;1.52;;
55827;SDS011;41758;51.992;5.890;2023-12-22T10:19:48;5.85;;;1.75;;
55827;SDS011;41758;51.992;5.890;2023-12-22T10:22:13;4.72;;;1.50;;
55827;SDS011;41758;51.992;5.890;2023-12-22T10:24:43;5.35;;;1.65;;
55827;SDS011;41758;51.992;5.890;2023-12-22T10:27:12;7.93;;;1.77;;
55827;SDS011;41758;51.992;5.890;2023-12-22T10:29:39;6.40;;;2.00;;
55827;SDS011;41758;51.992;5.890;2023-12-22T10:32:06;8.52;;;2.45;;
55827;SDS011;41758;51.992;5.890;2023-12-22T10:34:32;7.50;;;2.40;;
55827;SDS011;41758;51.992;5.890;2023-12-22T10:36:58;8.68;;;2.50;;
55827;SDS011;41758;51.992;5.890;2023-12-22T10:39:31;13.80;;;3.03;;
55827;SDS011;41758;51.992;5.890;2023-12-22T10:41:58;10.40;;;2.60;;
55827;SDS011;41758;51.992;5.890;2023-12-22T10:44:24;10.98;;;3.30;;
55827;SDS011;41758;51.992;5.890;2023-12-22T10:46:54;12.65;;;3.35;;
55827;SDS011;41758;51.992;5.890;2023-12-22T10:49:20;10.98;;;3.35;;
55827;SDS011;41758;51.992;5.890;2023-12-22T10:51:47;12.05;;;3.13;;
55827;SDS011;41758;51.992;5.890;2023-12-22T10:54:13;11.32;;;3.03;;
55827;SDS011;41758;51.992;5.890;2023-12-22T10:56:39;8.25;;;2.70;;
55827;SDS011;41758;51.992;5.890;2023-12-22T10:59:05;10.00;;;3.28;;
55827;SDS011;41758;51.992;5.890;2023-12-22T11:01:32;11.95;;;3.35;;
55827;SDS011;41758;51.992;5.890;2023-12-22T11:04:03;10.15;;;3.28;;
55827;SDS011;41758;51.992;5.890;2023-12-22T11:06:33;10.15;;;3.13;;
55827;SDS011;41758;51.992;5.890;2023-12-22T11:09:00;12.25;;;2.97;;
55827;SDS011;41758;51.992;5.890;2023-12-22T11:11:35;12.18;;;3.00;;
55827;SDS011;41758;51.992;5.890;2023-12-22T11:14:02;11.60;;;2.72;;
55827;SDS011;41758;51.992;5.890;2023-12-22T11:16:29;10.27;;;2.75;;
55827;SDS011;41758;51.992;5.890;2023-12-22T11:18:55;8.93;;;2.72;;
55827;SDS011;41758;51.992;5.890;2023-12-22T11:21:25;11.77;;;2.80;;
55827;SDS011;41758;51.992;5.890;2023-12-22T11:23:51;9.38;;;2.65;;
55827;SDS011;41758;51.992;5.890;2023-12-22T11:26:18;8.98;;;2.83;;
55827;SDS011;41758;51.992;5.890;2023-12-22T11:28:45;10.60;;;2.97;;
55827;SDS011;41758;51.992;5.890;2023-12-22T11:31:12;8.45;;;2.88;;
55827;SDS011;41758;51.992;5.890;2023-12-22T11:33:48;9.45;;;2.63;;
55827;SDS011;41758;51.992;5.890;2023-12-22T11:36:16;9.30;;;2.80;;
55827;SDS011;41758;51.992;5.890;2023-12-22T11:38:42;8.98;;;2.83;;
55827;SDS011;41758;51.992;5.890;2023-12-22T11:41:10;12.48;;;2.88;;
55827;SDS011;41758;51.992;5.890;2023-12-22T11:43:43;11.68;;;2.97;;
55827;SDS011;41758;51.992;5.890;2023-12-22T11:46:10;8.68;;;2.70;;
55827;SDS011;41758;51.992;5.890;2023-12-22T11:48:35;9.70;;;2.80;;
55827;SDS011;41758;51.992;5.890;2023-12-22T11:51:11;12.15;;;2.92;;
55827;SDS011;41758;51.992;5.890;2023-12-22T11:53:41;9.18;;;2.38;;
55827;SDS011;41758;51.992;5.890;2023-12-22T11:56:08;11.88;;;3.22;;
55827;SDS011;41758;51.992;5.890;2023-12-22T12:01:01;10.43;;;2.80;;
55827;SDS011;41758;51.992;5.890;2023-12-22T12:03:29;8.90;;;2.55;;
55827;SDS011;41758;51.992;5.890;2023-12-22T12:08:42;9.68;;;2.90;;
55827;SDS011;41758;51.992;5.890;2023-12-22T12:11:08;8.48;;;2.60;;
55827;SDS011;41758;51.992;5.890;2023-12-22T12:13:34;9.80;;;2.90;;
55827;SDS011;41758;51.992;5.890;2023-12-22T12:16:06;8.70;;;2.78;;
55827;SDS011;41758;51.992;5.890;2023-12-22T12:18:32;11.48;;;2.80;;
55827;SDS011;41758;51.992;5.890;2023-12-22T12:21:00;7.68;;;2.60;;
55827;SDS011;41758;51.992;5.890;2023-12-22T12:23:26;10.00;;;2.80;;
55827;SDS011;41758;51.992;5.890;2023-12-22T12:25:53;9.95;;;2.85;;
55827;SDS011;41758;51.992;5.890;2023-12-22T12:28:26;9.38;;;2.90;;
55827;SDS011;41758;51.992;5.890;2023-12-22T12:30:59;7.65;;;2.47;;
55827;SDS011;41758;51.992;5.890;2023-12-22T12:33:26;7.57;;;2.30;;
55827;SDS011;41758;51.992;5.890;2023-12-22T12:35:53;10.45;;;2.55;;
55827;SDS011;41758;51.992;5.890;2023-12-22T12:38:23;7.60;;;2.33;;
55827;SDS011;41758;51.992;5.890;2023-12-22T12:40:58;7.38;;;2.53;;
55827;SDS011;41758;51.992;5.890;2023-12-22T12:43:24;8.20;;;2.40;;
55827;SDS011;41758;51.992;5.890;2023-12-22T12:45:51;8.40;;;2.50;;
55827;SDS011;41758;51.992;5.890;2023-12-22T12:48:17;7.35;;;2.33;;
55827;SDS011;41758;51.992;5.890;2023-12-22T12:50:43;7.95;;;2.67;;
55827;SDS011;41758;51.992;5.890;2023-12-22T12:53:09;9.60;;;2.42;;
55827;SDS011;41758;51.992;5.890;2023-12-22T12:55:35;10.25;;;2.80;;
55827;SDS011;41758;51.992;5.890;2023-12-22T12:58:00;14.57;;;2.92;;
55827;SDS011;41758;51.992;5.890;2023-12-22T13:02:53;12.57;;;2.63;;
55827;SDS011;41758;51.992;5.890;2023-12-22T13:05:23;10.57;;;2.60;;
55827;SDS011;41758;51.992;5.890;2023-12-22T13:07:49;11.65;;;2.88;;
55827;SDS011;41758;51.992;5.890;2023-12-22T13:10:22;10.80;;;2.72;;
55827;SDS011;41758;51.992;5.890;2023-12-22T13:12:49;10.38;;;2.65;;
55827;SDS011;41758;51.992;5.890;2023-12-22T13:15:16;12.90;;;2.85;;
55827;SDS011;41758;51.992;5.890;2023-12-22T13:17:42;11.93;;;2.40;;
55827;SDS011;41758;51.992;5.890;2023-12-22T13:20:09;10.25;;;2.10;;
55827;SDS011;41758;51.992;5.890;2023-12-22T13:22:35;10.13;;;2.53;;
55827;SDS011;41758;51.992;5.890;2023-12-22T13:25:01;11.90;;;2.83;;
55827;SDS011;41758;51.992;5.890;2023-12-22T13:27:26;8.63;;;2.50;;
55827;SDS011;41758;51.992;5.890;2023-12-22T13:29:52;8.00;;;2.60;;
55827;SDS011;41758;51.992;5.890;2023-12-22T13:32:19;11.88;;;2.65;;
55827;SDS011;41758;51.992;5.890;2023-12-22T13:34:51;14.20;;;2.78;;
55827;SDS011;41758;51.992;5.890;2023-12-22T13:37:18;10.32;;;3.03;;
55827;SDS011;41758;51.992;5.890;2023-12-22T13:39:45;12.20;;;2.92;;
55827;SDS011;41758;51.992;5.890;2023-12-22T13:42:18;11.80;;;2.75;;
55827;SDS011;41758;51.992;5.890;2023-12-22T13:44:46;11.88;;;2.75;;
55827;SDS011;41758;51.992;5.890;2023-12-22T13:47:15;12.23;;;2.72;;
55827;SDS011;41758;51.992;5.890;2023-12-22T13:49:41;9.80;;;2.35;;
55827;SDS011;41758;51.992;5.890;2023-12-22T13:52:08;11.18;;;2.40;;
55827;SDS011;41758;51.992;5.890;2023-12-22T13:54:57;10.90;;;2.80;;
55827;SDS011;41758;51.992;5.890;2023-12-22T13:57:26;9.52;;;2.28;;
55827;SDS011;41758;51.992;5.890;2023-12-22T13:59:55;9.10;;;2.50;;
55827;SDS011;41758;51.992;5.890;2023-12-22T14:02:21;10.80;;;2.58;;
55827;SDS011;41758;51.992;5.890;2023-12-22T14:04:51;10.65;;;2.40;;
55827;SDS011;41758;51.992;5.890;2023-12-22T14:07:17;10.02;;;2.15;;
55827;SDS011;41758;51.992;5.890;2023-12-22T14:09:43;11.43;;;2.63;;
55827;SDS011;41758;51.992;5.890;2023-12-22T14:12:09;10.45;;;2.65;;
55827;SDS011;41758;51.992;5.890;2023-12-22T14:14:34;11.73;;;2.75;;
55827;SDS011;41758;51.992;5.890;2023-12-22T14:17:00;11.43;;;2.80;;
55827;SDS011;41758;51.992;5.890;2023-12-22T14:19:26;8.98;;;2.63;;
55827;SDS011;41758;51.992;5.890;2023-12-22T14:21:51;8.25;;;2.33;;
55827;SDS011;41758;51.992;5.890;2023-12-22T14:24:17;10.40;;;2.42;;
55827;SDS011;41758;51.992;5.890;2023-12-22T14:26:56;12.77;;;2.75;;
55827;SDS011;41758;51.992;5.890;2023-12-22T14:29:22;13.50;;;3.30;;
55827;SDS011;41758;51.992;5.890;2023-12-22T14:31:51;11.35;;;2.20;;
55827;SDS011;41758;51.992;5.890;2023-12-22T14:34:17;12.10;;;2.83;;
55827;SDS011;41758;51.992;5.890;2023-12-22T14:36:43;11.77;;;2.60;;
55827;SDS011;41758;51.992;5.890;2023-12-22T14:39:10;11.00;;;2.50;;
55827;SDS011;41758;51.992;5.890;2023-12-22T14:41:38;11.00;;;2.58;;
55827;SDS011;41758;51.992;5.890;2023-12-22T14:44:05;12.13;;;2.75;;
55827;SDS011;41758;51.992;5.890;2023-12-22T14:46:31;13.05;;;2.97;;